Hovedside
METAR-TAF:

METAR-TAF

Lufthavner :

Hurghada internasjonale lufthavn

Hurghada, Egypt

breddegrad: 27-09N, lengdegrad: 033-43E, høyde over havet: 16 m

Gjeldene værobservasjon

Denne rapporten ble laget for 1 time og 23 minutter siden, klokken 19:00 UTC
Flau vind
Temperatur 22°C
Luftfuktighet 38%
Trykk 1017 hPa
Sikt 10 km eller mer
ingen skyer under 1500 m og ingen bygeskyer

METAR: HEGN 281900Z 00000KT CAVOK 22/07 Q1017 NOSIG

Tid: 22:23 (20:23 UTC)

Varsel

Denne rapporten ble laget for 3 timer og 23 minutter siden, klokken 17:00 UTC
Varsel gyldig fra 28. klokken 18 UTC til 29. klokken 24 UTC
Vind 10 kt fra Nord-nordvest
Sikt 10 km eller mer
ingen skyer under 1500 m og ingen bygeskyer

TAF: HEGN 281700Z 2818/2924 33010KT CAVOK

Værobservasjoner og værvarsel for over 4000 flyplasser (METAR- og TAF-rapporter).

Tilgjengelige stasjoner er representert av de røde og gule prikkene på kartet.

Hold musepekeren over prikken for å se navnet på stasjonen.

Klikk så for å se værobservasjoner og -varsler.

For å forandre kartet kan du klikke på den grønne knappen med svart kryss for å zoome inn, på den grønne knappen med strek for å zoome ut, eller på de grønne pilene for å se tilstøtende kart.


METAR-TAF: